Time;durP1;ratioP1;P1;durP2;ratioP2;P2;SDS_P1;SDS_P2;PMS_P1;PMS_P2;Temp;Humidity;BMP_temperature;BMP_pressure;BME280_temperature;BME280_humidity;BME280_pressure;Samples;Min_cycle;Max_cycle;Signal;HPM_P1;HPM_P2
2022/05/10 00:02:11;;;;;;;2.78;0.90;;;;;;;4.58;56.55;100239.78;5014677;28;20529;-59
2022/05/10 00:04:36;;;;;;;2.72;0.82;;;;;;;4.55;56.26;100234.63;5032032;28;20043;-59
2022/05/10 00:07:02;;;;;;;2.88;1.23;;;;;;;4.59;55.86;100231.75;5014523;28;20468;-59
2022/05/10 00:09:29;;;;;;;2.72;1.17;;;;;;;4.58;56.14;100239.78;5032094;28;20385;-61
2022/05/10 00:11:58;;;;;;;1.13;0.80;;;;;;;4.56;56.31;100231.91;5032306;28;20108;-60
2022/05/10 00:14:27;;;;;;;2.10;0.85;;;;;;;4.59;56.20;100237.06;5031954;28;20029;-54
2022/05/10 00:16:53;;;;;;;1.42;1.00;;;;;;;4.56;55.83;100245.16;5031848;28;20477;-59
2022/05/10 00:19:20;;;;;;;1.77;0.98;;;;;;;4.54;55.39;100230.25;5031839;28;20106;-58
2022/05/10 00:21:47;;;;;;;2.58;0.90;;;;;;;4.53;55.99;100237.38;5032141;28;20049;-60
2022/05/10 00:24:13;;;;;;;1.40;0.90;;;;;;;4.54;55.35;100243.50;5032038;28;20037;-61
2022/05/10 00:26:40;;;;;;;1.65;0.85;;;;;;;4.54;55.00;100232.91;5031915;28;20531;-60
2022/05/10 00:29:05;;;;;;;2.97;0.85;;;;;;;4.50;55.03;100223.38;5030457;28;20385;-58
2022/05/10 00:31:31;;;;;;;2.55;0.82;;;;;;;4.50;55.36;100231.34;5031510;28;20120;-58
2022/05/10 00:33:59;;;;;;;3.10;1.13;;;;;;;4.35;55.66;100193.19;5031993;28;20492;-58
2022/05/10 00:36:25;;;;;;;1.52;0.82;;;;;;;4.47;55.54;100228.84;5031528;28;20030;-60
2022/05/10 00:38:51;;;;;;;1.45;0.80;;;;;;;4.46;55.38;100233.28;5031419;28;20121;-60
2022/05/10 00:41:42;;;;;;;2.45;0.90;;;;;;;4.53;55.13;100223.22;5031950;28;20112;-58
2022/05/10 00:44:22;;;;;;;1.35;1.00;;;;;;;4.50;55.11;100223.38;5031377;28;20536;-57
2022/05/10 00:47:20;;;;;;;1.42;0.95;;;;;;;4.57;55.26;100223.03;5031861;28;20041;-57
2022/05/10 00:50:02;;;;;;;1.85;0.70;;;;;;;4.55;55.11;100224.00;5031398;28;20037;-59
2022/05/10 00:52:42;;;;;;;1.25;0.50;;;;;;;4.52;55.30;100216.22;5031225;28;20187;-58
2022/05/10 00:55:15;;;;;;;1.58;0.80;;;;;;;4.47;55.87;100219.13;5031366;28;20041;-59
2022/05/10 00:57:43;;;;;;;1.02;0.75;;;;;;;4.40;55.13;100220.31;5031466;28;20025;-55
2022/05/10 01:00:15;;;;;;;1.20;0.70;;;;;;;4.32;55.73;100210.09;5031151;28;20041;-58
2022/05/10 01:02:47;;;;;;;1.88;0.70;;;;;;;4.36;55.81;100218.75;5030871;28;20555;-59
2022/05/10 01:05:36;;;;;;;1.23;0.80;;;;;;;4.31;55.99;100213.66;5031166;28;20382;-59
2022/05/10 01:08:16;;;;;;;1.45;0.80;;;;;;;4.33;56.35;100216.25;5031030;28;20022;-59
2022/05/10 01:11:04;;;;;;;1.33;0.80;;;;;;;4.29;56.32;100210.25;5030767;28;20124;-56
2022/05/10 01:13:49;;;;;;;0.93;0.80;;;;;;;4.29;56.27;100207.59;5031018;28;20025;-57
2022/05/10 01:16:18;;;;;;;1.00;0.82;;;;;;;4.28;56.06;100222.66;5031284;28;20021;-57
2022/05/10 01:18:44;;;;;;;5.63;0.80;;;;;;;4.24;55.97;100213.13;5013244;28;20037;-58
2022/05/10 01:21:31;;;;;;;1.42;0.85;;;;;;;4.25;56.33;100204.25;5030779;28;20120;-60
2022/05/10 01:24:05;;;;;;;1.60;0.95;;;;;;;4.26;56.15;100210.41;5030939;28;20091;-57
2022/05/10 01:26:53;;;;;;;3.72;0.90;;;;;;;4.28;56.23;100208.53;5013077;28;20049;-56
2022/05/10 01:29:40;;;;;;;1.38;0.70;;;;;;;4.27;56.24;100217.41;5030976;28;20128;-57
2022/05/10 01:35:01;;;;;;;1.63;0.80;;;;;;;4.19;56.36;100216.94;5030969;28;20409;-58
2022/05/10 01:37:33;;;;;;;0.88;0.70;;;;;;;4.12;56.47;100206.63;5030579;28;20038;-58
2022/05/10 01:40:05;;;;;;;3.28;1.05;;;;;;;4.17;56.37;100224.94;5030536;28;20036;-57
2022/05/10 01:42:40;;;;;;;2.05;0.60;;;;;;;4.13;56.58;100208.34;5030587;28;20116;-57
2022/05/10 01:45:17;;;;;;;1.20;1.00;;;;;;;4.21;56.20;100215.91;5030689;28;20032;-56
2022/05/10 01:47:45;;;;;;;3.65;1.00;;;;;;;4.16;56.23;100212.63;5030339;28;20064;-59
2022/05/10 01:50:19;;;;;;;1.77;0.88;;;;;;;4.20;56.26;100216.00;5012681;28;20381;-57
2022/05/10 01:52:55;;;;;;;1.88;0.90;;;;;;;4.20;56.10;100197.44;5030279;28;20473;-55
2022/05/10 01:55:31;;;;;;;1.33;0.93;;;;;;;4.23;56.30;100199.94;5030952;28;20026;-59
2022/05/10 01:58:10;;;;;;;1.80;0.90;;;;;;;4.22;56.37;100200.88;5012711;28;20091;-55
2022/05/10 02:00:38;;;;;;;2.35;0.82;;;;;;;4.23;56.33;100199.94;5030428;28;20047;-58
2022/05/10 02:03:34;;;;;;;2.83;1.10;;;;;;;4.31;55.70;100192.47;5030351;28;20100;-57
2022/05/10 02:06:22;;;;;;;2.03;0.90;;;;;;;4.28;56.04;100196.16;5024256;28;20045;-58
2022/05/10 02:08:47;;;;;;;1.27;0.70;;;;;;;4.28;55.82;100189.97;5030286;28;20477;-56
2022/05/10 02:11:16;;;;;;;1.90;0.95;;;;;;;4.31;55.48;100200.41;5012565;28;20037;-56
2022/05/10 02:13:50;;;;;;;2.03;0.90;;;;;;;4.35;55.79;100194.06;5030043;28;20109;-57
2022/05/10 02:16:29;;;;;;;2.37;0.90;;;;;;;4.43;55.73;100189.22;5030430;28;20061;-55
2022/05/10 02:19:03;;;;;;;2.75;1.10;;;;;;;4.51;55.13;100183.56;5030042;28;20263;-56
2022/05/10 02:21:45;;;;;;;1.88;0.85;;;;;;;4.65;54.77;100188.16;5030227;28;20025;-54
2022/05/10 02:24:33;;;;;;;1.58;1.15;;;;;;;4.60;54.63;100161.03;5033268;28;20045;-58
2022/05/10 02:27:04;;;;;;;3.58;1.20;;;;;;;4.79;54.83;100190.13;5033708;28;20049;-57
2022/05/10 02:29:37;;;;;;;2.55;1.23;;;;;;;4.82;54.57;100189.97;5034226;28;20675;-57
2022/05/10 02:35:13;;;;;;;2.53;1.10;;;;;;;4.87;53.97;100177.31;5033913;28;20108;-58
2022/05/10 02:37:40;;;;;;;1.10;0.90;;;;;;;4.84;53.66;100173.97;5033773;28;20444;-60
2022/05/10 02:40:07;;;;;;;2.55;0.90;;;;;;;4.81;54.15;100174.97;5033769;28;20030;-59
2022/05/10 02:42:33;;;;;;;3.53;1.13;;;;;;;4.84;53.48;100173.97;5033660;28;20112;-60
2022/05/10 02:45:00;;;;;;;1.88;1.10;;;;;;;4.89;53.85;100182.56;5016224;28;20025;-61
2022/05/10 02:47:33;;;;;;;2.63;1.25;;;;;;;5.01;53.56;100186.38;5033898;28;20236;-59
2022/05/10 02:49:59;;;;;;;3.08;1.00;;;;;;;5.00;53.18;100182.00;5033605;28;20091;-60
2022/05/10 02:52:26;;;;;;;1.98;1.20;;;;;;;4.83;53.10;100149.22;5016453;28;20123;-60
2022/05/10 02:55:00;;;;;;;4.80;1.20;;;;;;;5.09;53.70;100186.81;5033952;28;20389;-58
2022/05/10 02:57:28;;;;;;;5.22;1.20;;;;;;;5.13;52.88;100188.38;5033626;28;20409;-61
2022/05/10 02:59:58;;;;;;;2.13;1.17;;;;;;;5.20;52.96;100186.25;5033820;28;20096;-60
2022/05/10 03:02:29;;;;;;;4.93;1.17;;;;;;;5.28;52.67;100191.19;5033802;28;20153;-61
2022/05/10 03:04:57;;;;;;;4.43;1.42;;;;;;;5.32;52.24;100171.47;5033602;28;20034;-58
2022/05/10 03:07:24;;;;;;;2.25;1.02;;;;;;;5.40;52.18;100187.84;5033494;28;20029;-55
2022/05/10 03:09:50;;;;;;;2.35;1.27;;;;;;;5.45;52.23;100169.91;5032980;28;20049;-56
2022/05/10 03:12:16;;;;;;;3.35;1.20;;;;;;;5.51;52.03;100168.69;5033244;28;20866;-59
2022/05/10 03:14:41;;;;;;;3.63;1.50;;;;;;;5.59;51.53;100169.16;5033032;28;20169;-56
2022/05/10 03:17:10;;;;;;;2.72;1.13;;;;;;;5.68;51.08;100180.22;5033037;28;20069;-56
2022/05/10 03:19:36;;;;;;;2.08;1.10;;;;;;;5.72;50.86;100171.13;5015625;28;20037;-58
2022/05/10 03:22:03;;;;;;;1.13;0.80;;;;;;;5.81;51.42;100183.91;5033273;28;20041;-59
2022/05/10 03:24:29;;;;;;;2.03;0.82;;;;;;;5.92;50.93;100166.50;5032721;28;20030;-60
2022/05/10 03:26:54;;;;;;;2.05;1.00;;;;;;;6.03;49.73;100162.34;5033236;28;20132;-61
2022/05/10 03:29:21;;;;;;;2.67;0.93;;;;;;;6.12;49.34;100163.63;5032769;28;20481;-60
2022/05/10 03:31:46;;;;;;;1.88;1.02;;;;;;;6.38;49.55;100163.06;5032934;28;20193;-60
2022/05/10 03:36:56;;;;;;;3.35;0.95;;;;;;;8.01;45.59;100155.88;5032914;28;20083;-60
2022/05/10 03:39:22;;;;;;;1.48;0.80;;;;;;;9.08;43.00;100166.66;5033075;28;20029;-62
2022/05/10 03:41:47;;;;;;;1.60;0.80;;;;;;;10.19;40.37;100150.75;5015237;28;20021;-61
2022/05/10 03:44:13;;;;;;;1.67;1.00;;;;;;;11.22;37.75;100132.34;5032662;28;20029;-61
2022/05/10 03:46:38;;;;;;;1.05;0.75;;;;;;;12.38;35.31;100146.38;5032752;28;20442;-61
2022/05/10 03:49:04;;;;;;;2.78;0.90;;;;;;;13.35;33.57;100123.81;5032909;28;20037;-61
2022/05/10 03:51:30;;;;;;;1.42;0.70;;;;;;;14.53;31.07;100131.31;5032603;28;20377;-58
2022/05/10 03:53:57;;;;;;;2.25;0.80;;;;;;;15.18;29.82;100130.69;5032775;28;20045;-60
2022/05/10 03:56:24;;;;;;;1.50;0.82;;;;;;;15.44;28.84;100127.34;5032533;28;20396;-61
2022/05/10 03:58:50;;;;;;;2.05;0.75;;;;;;;15.88;28.28;100099.72;5032393;28;20472;-61
2022/05/10 04:01:18;;;;;;;1.80;0.80;;;;;;;16.63;27.18;100127.44;5015017;28;20124;-60
2022/05/10 04:03:45;;;;;;;1.83;1.00;;;;;;;17.12;25.86;100127.00;5032299;28;20041;-57
2022/05/10 04:06:10;;;;;;;3.33;0.80;;;;;;;17.57;25.19;100125.03;5030903;28;20311;-61
2022/05/10 04:08:36;;;;;;;0.85;0.65;;;;;;;18.22;24.17;100126.31;5032366;28;20045;-61
2022/05/10 04:11:08;;;;;;;1.33;0.63;;;;;;;19.25;24.21;100123.25;5032328;28;20037;-61
2022/05/10 04:13:34;;;;;;;1.23;0.90;;;;;;;20.15;22.00;100114.91;5031993;28;20366;-61
2022/05/10 04:15:59;;;;;;;3.10;0.90;;;;;;;20.78;21.00;100112.91;5032689;28;20036;-52
2022/05/10 04:18:26;;;;;;;1.35;0.70;;;;;;;21.15;20.19;100113.09;5038421;28;20049;-52
2022/05/10 04:20:51;;;;;;;2.92;0.60;;;;;;;21.48;19.49;100096.38;5040370;28;20515;-54
2022/05/10 04:23:17;;;;;;;0.73;0.60;;;;;;;22.26;18.98;100115.97;5023940;28;20017;-59
2022/05/10 04:25:43;;;;;;;2.05;0.70;;;;;;;22.87;18.34;100114.66;5040079;28;20808;-53
2022/05/10 04:28:09;;;;;;;1.15;0.73;;;;;;;23.41;17.83;100104.97;5040703;28;20398;-59
2022/05/10 04:30:35;;;;;;;2.85;0.70;;;;;;;23.99;16.76;100111.09;5041765;28;20057;-58
2022/05/10 04:33:00;;;;;;;0.80;0.50;;;;;;;23.71;16.75;100109.31;5039553;28;20056;-61
2022/05/10 04:35:26;;;;;;;0.70;0.50;;;;;;;22.53;18.14;100102.63;5041061;28;20031;-56
2022/05/10 04:37:51;;;;;;;1.48;0.70;;;;;;;21.50;19.12;100113.34;5022631;28;20027;-58
2022/05/10 04:43:05;;;;;;;0.73;0.50;;;;;;;21.04;18.98;100106.22;5035758;28;20025;-59
2022/05/10 04:45:31;;;;;;;1.30;0.88;;;;;;;21.70;18.94;100101.06;5040255;28;20033;-61
2022/05/10 04:47:57;;;;;;;0.95;0.70;;;;;;;22.73;17.37;100102.78;5039727;28;20068;-58
2022/05/10 04:50:22;;;;;;;4.57;0.68;;;;;;;23.53;16.69;100099.78;5041110;28;20068;-59
2022/05/10 04:52:48;;;;;;;1.63;0.75;;;;;;;24.30;16.02;100085.97;5039975;28;20071;-59
2022/05/10 04:55:13;;;;;;;2.22;0.52;;;;;;;24.85;15.25;100089.59;5012461;28;20494;-60
2022/05/10 04:57:39;;;;;;;1.02;0.70;;;;;;;25.79;14.52;100089.34;5023539;28;20068;-59
2022/05/10 05:00:06;;;;;;;1.35;0.90;;;;;;;26.72;14.03;100089.00;5039436;28;20036;-60
2022/05/10 05:02:32;;;;;;;4.25;0.90;;;;;;;27.56;13.23;100085.84;5039488;28;20023;-60
2022/05/10 05:04:57;;;;;;;1.80;0.63;;;;;;;27.64;12.88;100063.53;5041362;28;20100;-60
2022/05/10 05:07:23;;;;;;;1.77;0.90;;;;;;;27.90;12.41;100074.44;5039288;28;20091;-61
2022/05/10 05:09:48;;;;;;;2.25;0.93;;;;;;;28.34;12.04;100071.47;5039888;28;20384;-60
2022/05/10 05:12:14;;;;;;;2.60;0.80;;;;;;;28.69;11.76;100059.66;5040708;28;20025;-60
2022/05/10 05:14:39;;;;;;;1.27;1.00;;;;;;;28.73;11.87;100071.91;5038986;28;20044;-59
2022/05/10 05:17:04;;;;;;;0.98;0.75;;;;;;;29.03;11.62;100062.69;5040560;28;20079;-63
2022/05/10 05:19:30;;;;;;;2.17;0.90;;;;;;;29.34;11.09;100055.09;5040180;28;20037;-60
2022/05/10 05:21:56;;;;;;;1.10;0.90;;;;;;;29.66;10.82;100048.31;5021072;28;20041;-60
2022/05/10 05:24:21;;;;;;;1.70;0.50;;;;;;;28.88;11.07;100043.91;5030495;28;20037;-60
2022/05/10 05:26:47;;;;;;;1.20;0.50;;;;;;;28.62;11.35;100048.78;5039981;28;20033;-58
2022/05/10 05:29:13;;;;;;;1.67;0.55;;;;;;;28.11;11.31;100022.69;5040109;28;20065;-60
2022/05/10 05:31:39;;;;;;;0.90;0.60;;;;;;;28.11;11.64;100033.69;5038287;28;20450;-59
2022/05/10 05:34:05;;;;;;;0.50;0.50;;;;;;;28.14;11.24;100039.56;5040067;28;20032;-58
2022/05/10 05:36:31;;;;;;;1.27;0.70;;;;;;;28.17;11.24;100030.84;5040211;28;20032;-57
2022/05/10 05:38:56;;;;;;;1.23;0.98;;;;;;;28.05;11.50;100033.53;5038585;28;20477;-58
2022/05/10 05:41:22;;;;;;;1.60;0.70;;;;;;;28.88;10.96;100016.34;5040437;28;20094;-59
2022/05/10 05:43:47;;;;;;;1.38;0.80;;;;;;;28.88;10.69;100021.00;5039463;28;20411;-59
2022/05/10 05:46:13;;;;;;;1.23;0.70;;;;;;;28.21;10.86;99995.44;5039197;28;20021;-59
2022/05/10 05:48:38;;;;;;;1.63;0.47;;;;;;;27.98;11.22;99996.22;5040258;28;20112;-60
2022/05/10 05:51:05;;;;;;;1.27;0.60;;;;;;;28.09;11.14;100025.66;5047687;28;20136;-59
2022/05/10 05:53:30;;;;;;;0.88;0.57;;;;;;;29.17;10.42;100010.03;5050871;28;20044;-60
2022/05/10 05:56:05;;;;;;;1.17;0.65;;;;;;;30.21;10.56;100022.03;5050509;28;20078;-60
2022/05/10 05:58:31;;;;;;;2.83;0.40;;;;;;;29.81;9.67;100019.34;5049832;28;20091;-60
2022/05/10 06:00:56;;;;;;;3.25;0.70;;;;;;;28.76;10.38;100008.06;5050606;28;20333;-61
2022/05/10 06:03:22;;;;;;;0.98;0.57;;;;;;;28.47;10.46;99982.28;5050241;28;20053;-60
2022/05/10 06:05:49;;;;;;;2.13;0.70;;;;;;;29.61;9.78;100013.19;5050458;28;20025;-61
2022/05/10 06:08:16;;;;;;;0.73;0.45;;;;;;;30.32;8.99;100002.84;5050441;28;20025;-59
2022/05/10 06:10:42;;;;;;;0.95;0.52;;;;;;;30.38;9.06;99999.06;5050241;28;20040;-58
2022/05/10 06:13:09;;;;;;;3.22;0.60;;;;;;;31.68;8.31;99989.78;5050569;28;20033;-59
2022/05/10 06:15:36;;;;;;;1.92;0.65;;;;;;;31.96;7.85;99999.78;5050515;28;20032;-61
2022/05/10 06:18:04;;;;;;;1.33;0.60;;;;;;;30.81;8.38;99984.81;5044414;28;20036;-58
2022/05/10 06:20:30;;;;;;;1.90;0.60;;;;;;;28.35;9.76;99999.66;5031154;28;20426;-58
2022/05/10 06:22:56;;;;;;;0.50;0.50;;;;;;;27.06;10.78;99985.97;5030713;28;20026;-61
2022/05/10 06:25:23;;;;;;;2.05;0.50;;;;;;;27.15;10.76;99994.75;5030677;28;20535;-60
2022/05/10 06:27:51;;;;;;;5.18;0.70;;;;;;;26.54;11.12;99982.72;5031047;28;20074;-61
2022/05/10 06:30:18;;;;;;;1.95;0.85;;;;;;;24.70;12.16;99992.06;5030675;28;20029;-57
2022/05/10 06:32:43;;;;;;;2.42;0.68;;;;;;;24.25;13.10;99970.00;5030563;28;20025;-59
2022/05/10 06:35:09;;;;;;;2.40;0.50;;;;;;;23.00;14.03;99982.84;5030681;28;20470;-60
2022/05/10 06:40:20;;;;;;;2.38;0.50;;;;;;;22.32;14.77;99987.00;5030375;28;20037;-60
2022/05/10 06:42:46;;;;;;;1.52;0.60;;;;;;;22.40;14.17;99975.09;5030504;28;20038;-61
2022/05/10 06:45:15;;;;;;;0.73;0.38;;;;;;;21.62;15.25;99961.16;5030742;28;20035;-63
2022/05/10 06:47:42;;;;;;;1.38;0.50;;;;;;;20.02;16.58;99966.03;5030625;28;20374;-62
2022/05/10 06:50:11;;;;;;;1.02;0.70;;;;;;;18.55;18.14;99959.25;5030543;28;20028;-62
2022/05/10 06:52:37;;;;;;;1.02;0.65;;;;;;;17.24;19.55;99967.94;5030524;28;20061;-60
2022/05/10 06:55:03;;;;;;;1.10;0.63;;;;;;;16.99;20.10;99961.59;5030834;28;20079;-59
2022/05/10 06:57:29;;;;;;;1.00;0.60;;;;;;;17.88;19.17;99958.44;5030711;28;20064;-62
2022/05/10 06:59:55;;;;;;;2.95;0.80;;;;;;;18.99;17.72;99934.38;5030715;28;20061;-63
2022/05/10 07:02:23;;;;;;;1.63;0.43;;;;;;;19.47;17.27;99949.75;5030767;28;20445;-60
2022/05/10 07:04:48;;;;;;;1.30;0.70;;;;;;;18.39;17.92;99947.44;5030381;28;20379;-61
2022/05/10 07:07:14;;;;;;;2.97;0.77;;;;;;;16.96;19.43;99937.53;5030381;28;20104;-60
2022/05/10 07:09:39;;;;;;;3.08;0.77;;;;;;;16.24;20.38;99949.50;5015063;28;20112;-60
2022/05/10 07:12:05;;;;;;;2.08;0.60;;;;;;;15.84;20.47;99932.78;5034306;28;20068;-61
2022/05/10 07:14:30;;;;;;;2.17;0.63;;;;;;;15.51;20.41;99936.03;5016027;28;20026;-61
2022/05/10 07:16:56;;;;;;;2.30;0.50;;;;;;;15.51;20.27;99933.31;5033894;28;20401;-63
2022/05/10 07:19:22;;;;;;;3.00;0.43;;;;;;;16.40;18.95;99933.41;5034071;28;20033;-61
2022/05/10 07:21:49;;;;;;;0.63;0.30;;;;;;;17.50;17.58;99929.09;5033903;28;20084;-63
2022/05/10 07:24:16;;;;;;;2.70;0.60;;;;;;;18.55;16.82;99895.03;5016329;28;20045;-62
2022/05/10 07:26:45;;;;;;;1.02;0.50;;;;;;;19.39;16.22;99895.50;5033455;28;20053;-61
2022/05/10 07:29:10;;;;;;;1.00;0.55;;;;;;;19.04;16.18;99920.28;5033611;28;20477;-60
2022/05/10 07:31:36;;;;;;;2.80;0.80;;;;;;;17.69;17.35;99933.34;5033951;28;20041;-61
2022/05/10 07:34:01;;;;;;;3.15;0.85;;;;;;;16.78;18.61;99947.44;5033371;28;20544;-59
2022/05/10 07:36:33;;;;;;;1.30;0.47;;;;;;;16.08;19.61;99924.03;5033333;28;20034;-58
2022/05/10 07:39:05;;;;;;;0.98;0.50;;;;;;;15.78;20.01;99920.75;5033225;28;20061;-62
2022/05/10 07:41:31;;;;;;;0.57;0.50;;;;;;;15.73;20.18;99912.28;5033027;28;20025;-58
2022/05/10 07:43:57;;;;;;;5.03;0.80;;;;;;;16.09;19.82;99911.41;5032826;28;20025;-59
2022/05/10 07:46:23;;;;;;;2.20;0.65;;;;;;;16.20;19.90;99908.44;5014998;28;20057;-59
2022/05/10 07:48:49;;;;;;;2.08;0.60;;;;;;;16.00;20.02;99908.63;5035080;28;20025;-62
2022/05/10 07:51:14;;;;;;;1.42;0.88;;;;;;;16.53;19.95;99911.34;5040743;28;20430;-59
2022/05/10 07:53:41;;;;;;;2.25;1.10;;;;;;;17.02;18.86;99899.91;5041765;28;20040;-61
2022/05/10 07:56:07;;;;;;;2.97;0.90;;;;;;;17.35;17.82;99899.16;5042388;28;20462;-58
2022/05/10 07:58:33;;;;;;;1.88;0.63;;;;;;;18.02;17.52;99887.38;5040401;28;20083;-62
2022/05/10 08:00:59;;;;;;;2.67;0.70;;;;;;;17.79;17.91;99868.19;5041549;28;20029;-60
2022/05/10 08:03:26;;;;;;;0.70;0.50;;;;;;;17.33;18.75;99888.47;5041448;28;20113;-62
2022/05/10 08:05:56;;;;;;;3.28;0.70;;;;;;;16.53;19.35;99894.28;5040136;28;20466;-61
2022/05/10 08:08:25;;;;;;;3.10;0.95;;;;;;;15.95;19.89;99861.53;5041529;28;20027;-59
2022/05/10 08:10:53;;;;;;;2.08;0.63;;;;;;;15.37;20.18;99883.44;5041992;28;20063;-58
2022/05/10 08:13:21;;;;;;;3.90;0.70;;;;;;;15.00;20.44;99885.25;5040571;28;20033;-58
2022/05/10 08:15:47;;;;;;;3.63;0.68;;;;;;;14.76;20.96;99883.97;5040658;28;20449;-61
2022/05/10 08:18:14;;;;;;;5.07;0.77;;;;;;;14.64;21.21;99872.50;5041835;28;20029;-60
2022/05/10 08:20:41;;;;;;;4.10;0.93;;;;;;;14.30;21.82;99880.28;5039459;28;20039;-61
2022/05/10 08:23:07;;;;;;;2.88;0.90;;;;;;;14.07;21.88;99849.16;5040521;28;20025;-60
2022/05/10 08:25:34;;;;;;;1.55;0.70;;;;;;;14.34;21.99;99879.84;5041959;28;20079;-59
2022/05/10 08:28:00;;;;;;;1.63;0.80;;;;;;;14.62;21.15;99854.78;5040432;28;20149;-59
2022/05/10 08:30:25;;;;;;;5.03;1.20;;;;;;;15.06;20.68;99849.59;5040794;28;20116;-59
2022/05/10 08:32:51;;;;;;;2.03;0.70;;;;;;;15.27;20.48;99861.06;5042050;28;20487;-57
2022/05/10 08:35:17;;;;;;;3.97;0.90;;;;;;;15.11;20.82;99845.56;5045560;28;20091;-60
2022/05/10 08:37:43;;;;;;;2.90;0.68;;;;;;;14.81;20.64;99853.00;5049277;28;20029;-57
2022/05/10 08:40:29;;;;;;;2.78;0.68;;;;;;;14.58;21.32;99824.59;5051727;28;20354;-56
2022/05/10 08:43:04;;;;;;;12.15;0.80;;;;;;;14.11;20.78;99816.59;5051702;28;20035;-59
2022/05/10 08:45:37;;;;;;;2.20;1.00;;;;;;;14.32;20.16;99835.22;5052049;28;20083;-58
2022/05/10 08:48:02;;;;;;;3.00;0.82;;;;;;;14.40;19.99;99824.53;5051835;28;20124;-58
2022/05/10 08:50:28;;;;;;;5.00;0.70;;;;;;;14.40;20.19;99821.84;5051750;28;20195;-59
2022/05/10 08:52:53;;;;;;;3.65;0.70;;;;;;;14.40;20.47;99816.44;5052085;28;20108;-63
2022/05/10 08:55:27;;;;;;;4.13;0.60;;;;;;;14.25;20.55;99818.78;5051912;28;20487;-58
2022/05/10 08:58:17;;;;;;;3.88;0.75;;;;;;;13.82;21.17;99834.50;5052222;28;20043;-60
2022/05/10 09:00:51;;;;;;;1.80;0.70;;;;;;;13.61;21.13;99818.53;5051699;28;20108;-58
2022/05/10 09:03:28;;;;;;;1.83;0.70;;;;;;;13.56;21.10;99821.69;5051828;28;20040;-61
2022/05/10 09:06:01;;;;;;;4.05;0.70;;;;;;;13.57;20.74;99806.38;5051682;28;20095;-57
2022/05/10 09:08:59;;;;;;;5.45;0.50;;;;;;;13.71;20.43;99797.00;5051867;28;20032;-56
2022/05/10 09:11:51;;;;;;;3.45;0.57;;;;;;;13.59;20.38;99812.44;5051305;28;20041;-56
2022/05/10 09:14:25;;;;;;;1.20;0.63;;;;;;;13.54;20.08;99809.34;5033939;28;20037;-61
2022/05/10 09:16:52;;;;;;;5.82;0.73;;;;;;;13.57;20.07;99811.75;5051616;28;20029;-57
2022/05/10 09:19:18;;;;;;;7.15;0.90;;;;;;;13.77;20.09;99815.28;5051485;28;20033;-57
2022/05/10 09:21:54;;;;;;;2.47;0.90;;;;;;;14.02;20.28;99811.09;5051382;28;20114;-60
2022/05/10 09:24:33;;;;;;;2.90;0.60;;;;;;;13.90;20.16;99814.97;5051561;28;20048;-58
2022/05/10 09:27:08;;;;;;;3.28;0.70;;;;;;;13.84;20.31;99813.69;5051115;28;20132;-57
2022/05/10 09:29:44;;;;;;;3.40;0.60;;;;;;;13.74;20.58;99819.09;5050975;28;20401;-54
2022/05/10 09:35:11;;;;;;;4.88;0.77;;;;;;;14.05;20.31;99793.78;5051251;28;20043;-58
2022/05/10 09:37:42;;;;;;;2.50;0.80;;;;;;;14.12;20.18;99812.91;5051493;28;20111;-53
2022/05/10 09:40:19;;;;;;;3.35;0.70;;;;;;;14.12;20.88;99802.97;5051119;28;20392;-56
2022/05/10 09:42:49;;;;;;;2.53;0.63;;;;;;;14.08;20.90;99804.25;5050916;28;20108;-55
2022/05/10 09:45:26;;;;;;;2.42;0.70;;;;;;;13.98;21.18;99814.19;5033186;28;20443;-57
2022/05/10 09:48:08;;;;;;;4.70;1.00;;;;;;;13.83;21.42;99800.38;5050882;28;20035;-59
2022/05/10 09:50:41;;;;;;;2.05;0.80;;;;;;;13.59;21.64;99802.56;5050582;28;20116;-59
2022/05/10 09:53:34;;;;;;;5.38;0.98;;;;;;;13.48;22.23;99810.75;5050599;28;20025;-55
2022/05/10 09:56:23;;;;;;;3.22;1.00;;;;;;;13.20;22.30;99826.72;5050837;28;20032;-59
2022/05/10 09:59:11;;;;;;;2.75;0.80;;;;;;;13.33;22.48;99811.19;5050722;28;20448;-59
2022/05/10 10:01:41;;;;;;;2.80;0.90;;;;;;;13.29;22.37;99816.97;5004062;28;20049;-59
2022/05/10 10:04:16;;;;;;;5.85;0.85;;;;;;;13.44;22.49;99825.50;5050658;28;20123;-60
2022/05/10 10:06:41;;;;;;;2.88;0.88;;;;;;;13.47;22.62;99825.19;5051111;28;20392;-64
2022/05/10 10:09:07;;;;;;;2.75;0.75;;;;;;;13.51;22.02;99818.56;5050750;28;20128;-57
2022/05/10 10:11:34;;;;;;;2.53;0.88;;;;;;;13.48;22.14;99826.91;5050644;28;20119;-56
2022/05/10 10:14:06;;;;;;;1.75;0.60;;;;;;;13.42;22.11;99814.00;5050603;28;20067;-63
2022/05/10 10:16:36;;;;;;;7.32;0.90;;;;;;;13.19;22.38;99806.22;5050576;28;20040;-57
2022/05/10 10:19:12;;;;;;;5.18;0.80;;;;;;;12.98;22.46;99766.88;5050623;28;20117;-55
2022/05/10 10:21:50;;;;;;;3.38;0.70;;;;;;;13.09;22.56;99819.66;5050513;28;20029;-59
2022/05/10 10:24:51;;;;;;;1.23;0.73;;;;;;;12.98;22.57;99791.06;5050592;28;20033;-59
2022/05/10 10:27:26;;;;;;;0.95;0.63;;;;;;;12.63;22.63;99803.19;5029472;28;20053;-57
2022/05/10 10:29:58;;;;;;;9.57;0.90;;;;;;;12.33;23.23;99796.91;5030445;28;20040;-58
2022/05/10 10:32:35;;;;;;;4.95;0.82;;;;;;;12.17;23.47;99789.31;5030793;28;20140;-58
2022/05/10 10:35:10;;;;;;;4.90;0.70;;;;;;;11.91;24.00;99795.97;5030613;28;20439;-57
2022/05/10 10:37:45;;;;;;;3.42;0.60;;;;;;;11.87;23.97;99783.81;5030539;28;20048;-58
2022/05/10 10:40:41;;;;;;;3.17;0.65;;;;;;;11.99;24.00;99807.88;5031391;28;20041;-59
2022/05/10 10:43:16;;;;;;;1.10;0.60;;;;;;;11.90;24.34;99793.41;5030809;28;20070;-61
2022/05/10 10:45:45;;;;;;;5.32;0.95;;;;;;;11.90;24.64;99793.41;5034796;28;20134;-60
2022/05/10 10:48:27;;;;;;;3.22;0.90;;;;;;;12.02;24.72;99803.13;5034692;28;20033;-58
2022/05/10 10:50:53;;;;;;;4.85;1.00;;;;;;;11.95;24.45;99793.88;5034284;28;20033;-57
2022/05/10 10:53:22;;;;;;;2.90;0.60;;;;;;;11.90;24.43;99809.50;5034458;28;20544;-58
2022/05/10 10:55:59;;;;;;;3.22;0.70;;;;;;;11.85;25.04;99827.84;5034373;28;20040;-60
2022/05/10 10:58:40;;;;;;;1.88;0.60;;;;;;;11.58;25.63;99811.31;5033789;28;20385;-56
2022/05/10 11:01:28;;;;;;;6.63;0.70;;;;;;;11.55;25.97;99816.09;5034264;28;20388;-60
2022/05/10 11:04:18;;;;;;;4.05;0.60;;;;;;;11.47;25.92;99835.50;5034146;28;20490;-59
2022/05/10 11:06:52;;;;;;;5.95;1.33;;;;;;;11.40;26.62;99845.03;5034466;28;20500;-57
2022/05/10 11:09:38;;;;;;;3.20;0.80;;;;;;;11.48;26.39;99813.06;5034070;28;20049;-55
2022/05/10 11:12:13;;;;;;;1.50;0.80;;;;;;;11.55;26.84;99814.22;5034186;28;20052;-59
2022/05/10 11:14:46;;;;;;;4.47;0.88;;;;;;;11.56;26.61;99823.97;5033864;28;20048;-56
2022/05/10 11:17:29;;;;;;;4.22;0.70;;;;;;;11.68;25.57;99822.09;5033558;28;20033;-57
2022/05/10 11:19:58;;;;;;;4.18;0.75;;;;;;;11.49;26.06;99833.53;5049065;28;20037;-58
2022/05/10 11:22:29;;;;;;;0.95;0.65;;;;;;;11.32;26.16;99838.47;5033583;28;20056;-61
2022/05/10 11:25:00;;;;;;;4.70;0.93;;;;;;;11.20;27.68;99847.56;5033870;28;20037;-58
2022/05/10 11:27:50;;;;;;;4.70;0.93;;;;;;;11.01;28.01;99846.38;5045601;28;20471;-57
2022/05/10 11:30:18;;;;;;;1.65;0.85;;;;;;;10.84;29.14;99849.59;5053793;28;20047;-59
2022/05/10 11:32:52;;;;;;;4.97;0.85;;;;;;;10.60;29.66;99858.63;5053760;28;20037;-61
2022/05/10 11:35:33;;;;;;;11.00;1.20;;;;;;;10.66;30.20;99868.88;5053713;28;20059;-58
2022/05/10 11:38:11;;;;;;;5.55;0.75;;;;;;;10.47;30.37;99848.94;5035385;28;20166;-59
2022/05/10 11:40:40;;;;;;;2.72;0.70;;;;;;;10.30;32.70;99862.75;5053473;28;20036;-59
2022/05/10 11:43:36;;;;;;;1.65;0.70;;;;;;;10.22;32.85;99871.38;5053042;28;20044;-61
2022/05/10 11:46:31;;;;;;;5.28;0.82;;;;;;;9.91;33.80;99847.91;5053171;28;20033;-59
2022/05/10 11:49:30;;;;;;;1.42;0.73;;;;;;;10.24;33.92;99901.53;5053004;28;20041;-60
2022/05/10 11:52:19;;;;;;;6.10;0.90;;;;;;;10.10;36.27;99910.66;5052919;28;20029;-57
2022/05/10 11:54:58;;;;;;;3.53;1.02;;;;;;;10.04;36.71;99898.63;5052769;28;20059;-60
2022/05/10 11:57:26;;;;;;;3.13;0.75;;;;;;;9.79;38.48;99894.28;5052398;28;20025;-61
2022/05/10 11:59:51;;;;;;;11.20;1.02;;;;;;;9.73;39.36;99894.78;5052622;28;20445;-61
2022/05/10 12:02:29;;;;;;;1.75;0.70;;;;;;;9.79;38.67;99907.66;5053219;28;20096;-57
2022/05/10 12:05:26;;;;;;;2.35;0.60;;;;;;;9.73;41.17;99898.28;5052578;28;20033;-60
2022/05/10 12:08:01;;;;;;;1.52;0.73;;;;;;;9.52;41.34;99897.22;5052910;28;20037;-59